sensor_id;sensor_type;location;lat;lon;timestamp;P1;P2;P0
70520;PMS5003;58442;52.716;23.560;2023-07-08T00:02:07;24;24;17
70520;PMS5003;58442;52.716;23.560;2023-07-08T00:04:12;21;21;15
70520;PMS5003;58442;52.716;23.560;2023-07-08T00:08:22;18;18;12
70520;PMS5003;58442;52.716;23.560;2023-07-08T00:10:24;15;15;12
70520;PMS5003;58442;52.716;23.560;2023-07-08T00:12:27;22;21;14
70520;PMS5003;58442;52.716;23.560;2023-07-08T00:14:28;21;21;16
70520;PMS5003;58442;52.716;23.560;2023-07-08T00:16:29;19;19;14
70520;PMS5003;58442;52.716;23.560;2023-07-08T00:18:34;20;20;13
70520;PMS5003;58442;52.716;23.560;2023-07-08T00:20:36;20;20;13
70520;PMS5003;58442;52.716;23.560;2023-07-08T00:22:40;22;22;15
70520;PMS5003;58442;52.716;23.560;2023-07-08T00:24:42;16;16;13
70520;PMS5003;58442;52.716;23.560;2023-07-08T00:26:49;16;16;13
70520;PMS5003;58442;52.716;23.560;2023-07-08T00:28:51;18;18;13
70520;PMS5003;58442;52.716;23.560;2023-07-08T00:30:52;16;16;13
70520;PMS5003;58442;52.716;23.560;2023-07-08T00:32:56;19;18;13
70520;PMS5003;58442;52.716;23.560;2023-07-08T00:35:04;14;14;11
70520;PMS5003;58442;52.716;23.560;2023-07-08T00:37:07;15;15;11
70520;PMS5003;58442;52.716;23.560;2023-07-08T00:39:13;13;13;11
70520;PMS5003;58442;52.716;23.560;2023-07-08T00:43:34;6;6;5
70520;PMS5003;58442;52.716;23.560;2023-07-08T00:45:47;14;14;11
70520;PMS5003;58442;52.716;23.560;2023-07-08T00:50:23;18;16;11
70520;PMS5003;58442;52.716;23.560;2023-07-08T00:52:25;16;16;12
70520;PMS5003;58442;52.716;23.560;2023-07-08T00:54:28;14;14;11
70520;PMS5003;58442;52.716;23.560;2023-07-08T00:56:35;11;11;10
70520;PMS5003;58442;52.716;23.560;2023-07-08T00:58:42;13;13;11
70520;PMS5003;58442;52.716;23.560;2023-07-08T01:00:59;10;10;7
70520;PMS5003;58442;52.716;23.560;2023-07-08T01:03:04;11;11;10
70520;PMS5003;58442;52.716;23.560;2023-07-08T01:05:10;10;10;9
70520;PMS5003;58442;52.716;23.560;2023-07-08T01:07:18;13;13;10
70520;PMS5003;58442;52.716;23.560;2023-07-08T01:09:22;14;14;10
70520;PMS5003;58442;52.716;23.560;2023-07-08T01:11:36;14;14;10
70520;PMS5003;58442;52.716;23.560;2023-07-08T01:13:40;11;10;9
70520;PMS5003;58442;52.716;23.560;2023-07-08T01:15:45;11;11;9
70520;PMS5003;58442;52.716;23.560;2023-07-08T01:17:49;14;14;10
70520;PMS5003;58442;52.716;23.560;2023-07-08T01:19:54;11;11;10
70520;PMS5003;58442;52.716;23.560;2023-07-08T01:24:07;11;11;10
70520;PMS5003;58442;52.716;23.560;2023-07-08T01:26:11;10;10;8
70520;PMS5003;58442;52.716;23.560;2023-07-08T01:28:13;11;11;10
70520;PMS5003;58442;52.716;23.560;2023-07-08T01:30:15;12;12;10
70520;PMS5003;58442;52.716;23.560;2023-07-08T01:32:17;12;12;10
70520;PMS5003;58442;52.716;23.560;2023-07-08T01:34:19;14;14;10
70520;PMS5003;58442;52.716;23.560;2023-07-08T01:36:23;10;9;8
70520;PMS5003;58442;52.716;23.560;2023-07-08T01:38:25;9;9;8
70520;PMS5003;58442;52.716;23.560;2023-07-08T01:40:31;13;13;8
70520;PMS5003;58442;52.716;23.560;2023-07-08T01:42:35;11;11;9
70520;PMS5003;58442;52.716;23.560;2023-07-08T01:44:37;14;14;10
70520;PMS5003;58442;52.716;23.560;2023-07-08T01:46:39;14;14;10
70520;PMS5003;58442;52.716;23.560;2023-07-08T01:48:41;13;13;10
70520;PMS5003;58442;52.716;23.560;2023-07-08T01:50:51;11;11;8
70520;PMS5003;58442;52.716;23.560;2023-07-08T01:52:59;10;10;8
70520;PMS5003;58442;52.716;23.560;2023-07-08T01:55:14;13;13;10
70520;PMS5003;58442;52.716;23.560;2023-07-08T01:57:15;11;11;10
70520;PMS5003;58442;52.716;23.560;2023-07-08T01:59:17;10;10;7
70520;PMS5003;58442;52.716;23.560;2023-07-08T02:01:18;13;12;9
70520;PMS5003;58442;52.716;23.560;2023-07-08T02:03:29;10;10;7
70520;PMS5003;58442;52.716;23.560;2023-07-08T02:05:30;11;11;9
70520;PMS5003;58442;52.716;23.560;2023-07-08T02:07:32;12;12;9
70520;PMS5003;58442;52.716;23.560;2023-07-08T02:09:33;10;10;8
70520;PMS5003;58442;52.716;23.560;2023-07-08T02:11:43;8;8;6
70520;PMS5003;58442;52.716;23.560;2023-07-08T02:13:45;9;9;8
70520;PMS5003;58442;52.716;23.560;2023-07-08T02:15:46;14;14;11
70520;PMS5003;58442;52.716;23.560;2023-07-08T02:17:48;10;10;8
70520;PMS5003;58442;52.716;23.560;2023-07-08T02:19:58;11;11;9
70520;PMS5003;58442;52.716;23.560;2023-07-08T02:22:00;9;9;7
70520;PMS5003;58442;52.716;23.560;2023-07-08T02:24:01;13;13;10
70520;PMS5003;58442;52.716;23.560;2023-07-08T02:26:03;11;11;8
70520;PMS5003;58442;52.716;23.560;2023-07-08T02:28:13;9;9;8
70520;PMS5003;58442;52.716;23.560;2023-07-08T02:30:14;15;15;11
70520;PMS5003;58442;52.716;23.560;2023-07-08T02:32:16;11;11;9
70520;PMS5003;58442;52.716;23.560;2023-07-08T02:34:18;13;13;8
70520;PMS5003;58442;52.716;23.560;2023-07-08T02:36:28;13;13;10
70520;PMS5003;58442;52.716;23.560;2023-07-08T02:38:29;10;9;8
70520;PMS5003;58442;52.716;23.560;2023-07-08T02:40:31;12;12;11
70520;PMS5003;58442;52.716;23.560;2023-07-08T02:42:32;11;11;10
70520;PMS5003;58442;52.716;23.560;2023-07-08T02:44:43;10;10;8
70520;PMS5003;58442;52.716;23.560;2023-07-08T02:46:44;9;9;7
70520;PMS5003;58442;52.716;23.560;2023-07-08T02:48:45;9;9;8
70520;PMS5003;58442;52.716;23.560;2023-07-08T02:50:47;10;10;7
70520;PMS5003;58442;52.716;23.560;2023-07-08T02:52:58;11;11;10
70520;PMS5003;58442;52.716;23.560;2023-07-08T02:54:59;13;13;10
70520;PMS5003;58442;52.716;23.560;2023-07-08T02:57:00;7;7;7
70520;PMS5003;58442;52.716;23.560;2023-07-08T02:59:02;9;9;8
70520;PMS5003;58442;52.716;23.560;2023-07-08T03:01:13;10;10;8
70520;PMS5003;58442;52.716;23.560;2023-07-08T03:03:18;9;9;7
70520;PMS5003;58442;52.716;23.560;2023-07-08T03:05:19;10;10;8
70520;PMS5003;58442;52.716;23.560;2023-07-08T03:07:20;12;12;9
70520;PMS5003;58442;52.716;23.560;2023-07-08T03:09:27;7;7;6
70520;PMS5003;58442;52.716;23.560;2023-07-08T03:11:29;9;9;7
70520;PMS5003;58442;52.716;23.560;2023-07-08T03:13:32;10;10;8
70520;PMS5003;58442;52.716;23.560;2023-07-08T03:15:34;4;4;3
70520;PMS5003;58442;52.716;23.560;2023-07-08T03:17:42;9;9;8
70520;PMS5003;58442;52.716;23.560;2023-07-08T03:19:44;7;7;7
70520;PMS5003;58442;52.716;23.560;2023-07-08T03:21:45;7;7;7
70520;PMS5003;58442;52.716;23.560;2023-07-08T03:23:50;9;9;7
70520;PMS5003;58442;52.716;23.560;2023-07-08T03:25:57;9;9;7
70520;PMS5003;58442;52.716;23.560;2023-07-08T03:27:58;8;8;6
70520;PMS5003;58442;52.716;23.560;2023-07-08T03:30:00;9;9;8
70520;PMS5003;58442;52.716;23.560;2023-07-08T03:32:01;9;9;7
70520;PMS5003;58442;52.716;23.560;2023-07-08T03:34:13;12;12;9
70520;PMS5003;58442;52.716;23.560;2023-07-08T03:36:16;9;9;8
70520;PMS5003;58442;52.716;23.560;2023-07-08T03:38:25;9;9;9
70520;PMS5003;58442;52.716;23.560;2023-07-08T03:40:26;8;8;8
70520;PMS5003;58442;52.716;23.560;2023-07-08T03:42:29;11;11;9
70520;PMS5003;58442;52.716;23.560;2023-07-08T03:44:30;11;10;8
70520;PMS5003;58442;52.716;23.560;2023-07-08T03:46:32;8;8;7
70520;PMS5003;58442;52.716;23.560;2023-07-08T03:48:33;6;6;6
70520;PMS5003;58442;52.716;23.560;2023-07-08T03:50:44;8;8;7
70520;PMS5003;58442;52.716;23.560;2023-07-08T03:52:46;7;7;6
70520;PMS5003;58442;52.716;23.560;2023-07-08T03:54:48;9;9;7
70520;PMS5003;58442;52.716;23.560;2023-07-08T03:56:49;9;9;8
70520;PMS5003;58442;52.716;23.560;2023-07-08T03:58:59;8;8;8
70520;PMS5003;58442;52.716;23.560;2023-07-08T04:01:00;8;8;7
70520;PMS5003;58442;52.716;23.560;2023-07-08T04:03:01;11;11;9
70520;PMS5003;58442;52.716;23.560;2023-07-08T04:05:03;9;9;7
70520;PMS5003;58442;52.716;23.560;2023-07-08T04:07:14;10;10;8
70520;PMS5003;58442;52.716;23.560;2023-07-08T04:09:15;7;7;6
70520;PMS5003;58442;52.716;23.560;2023-07-08T04:11:18;8;8;7
70520;PMS5003;58442;52.716;23.560;2023-07-08T04:13:22;8;8;7
70520;PMS5003;58442;52.716;23.560;2023-07-08T04:15:28;11;10;8
70520;PMS5003;58442;52.716;23.560;2023-07-08T04:17:30;8;8;7
70520;PMS5003;58442;52.716;23.560;2023-07-08T04:19:31;10;10;9
70520;PMS5003;58442;52.716;23.560;2023-07-08T04:21:33;8;8;7
70520;PMS5003;58442;52.716;23.560;2023-07-08T04:23:43;10;10;9
70520;PMS5003;58442;52.716;23.560;2023-07-08T04:25:45;6;6;5
70520;PMS5003;58442;52.716;23.560;2023-07-08T04:27:48;11;11;10
70520;PMS5003;58442;52.716;23.560;2023-07-08T04:29:49;9;9;8
70520;PMS5003;58442;52.716;23.560;2023-07-08T04:31:58;9;9;8
70520;PMS5003;58442;52.716;23.560;2023-07-08T04:33:59;11;11;7
70520;PMS5003;58442;52.716;23.560;2023-07-08T04:36:01;8;8;8
70520;PMS5003;58442;52.716;23.560;2023-07-08T04:38:06;10;10;8
70520;PMS5003;58442;52.716;23.560;2023-07-08T04:40:17;8;8;6
70520;PMS5003;58442;52.716;23.560;2023-07-08T04:42:20;9;9;7
70520;PMS5003;58442;52.716;23.560;2023-07-08T04:44:21;10;10;9
70520;PMS5003;58442;52.716;23.560;2023-07-08T04:48:40;11;11;9
70520;PMS5003;58442;52.716;23.560;2023-07-08T04:50:50;11;11;10
70520;PMS5003;58442;52.716;23.560;2023-07-08T04:52:52;9;9;7
70520;PMS5003;58442;52.716;23.560;2023-07-08T04:54:54;12;12;9
70520;PMS5003;58442;52.716;23.560;2023-07-08T04:56:55;9;9;7
70520;PMS5003;58442;52.716;23.560;2023-07-08T04:59:05;11;11;8
70520;PMS5003;58442;52.716;23.560;2023-07-08T05:01:08;9;9;8
70520;PMS5003;58442;52.716;23.560;2023-07-08T05:03:09;10;10;8
70520;PMS5003;58442;52.716;23.560;2023-07-08T05:05:11;10;10;8
70520;PMS5003;58442;52.716;23.560;2023-07-08T05:07:19;10;10;8
70520;PMS5003;58442;52.716;23.560;2023-07-08T05:09:20;10;10;9
70520;PMS5003;58442;52.716;23.560;2023-07-08T05:11:26;10;10;9
70520;PMS5003;58442;52.716;23.560;2023-07-08T05:13:28;8;8;7
70520;PMS5003;58442;52.716;23.560;2023-07-08T05:15:34;10;10;6
70520;PMS5003;58442;52.716;23.560;2023-07-08T05:17:37;7;7;6
70520;PMS5003;58442;52.716;23.560;2023-07-08T05:19:39;10;10;7
70520;PMS5003;58442;52.716;23.560;2023-07-08T05:21:43;10;10;9
70520;PMS5003;58442;52.716;23.560;2023-07-08T05:23:48;9;9;8
70520;PMS5003;58442;52.716;23.560;2023-07-08T05:25:50;9;9;8
70520;PMS5003;58442;52.716;23.560;2023-07-08T05:27:51;5;5;5
70520;PMS5003;58442;52.716;23.560;2023-07-08T05:29:53;8;8;6
70520;PMS5003;58442;52.716;23.560;2023-07-08T05:32:04;9;9;8
70520;PMS5003;58442;52.716;23.560;2023-07-08T05:34:05;11;11;8
70520;PMS5003;58442;52.716;23.560;2023-07-08T05:36:07;9;9;7
70520;PMS5003;58442;52.716;23.560;2023-07-08T05:38:08;9;9;8
70520;PMS5003;58442;52.716;23.560;2023-07-08T05:40:18;6;6;5
70520;PMS5003;58442;52.716;23.560;2023-07-08T05:42:20;7;7;6
70520;PMS5003;58442;52.716;23.560;2023-07-08T05:44:22;6;6;4
70520;PMS5003;58442;52.716;23.560;2023-07-08T05:46:23;6;6;6
70520;PMS5003;58442;52.716;23.560;2023-07-08T05:48:33;5;5;4
70520;PMS5003;58442;52.716;23.560;2023-07-08T05:50:34;5;5;5
70520;PMS5003;58442;52.716;23.560;2023-07-08T05:52:36;7;7;6
70520;PMS5003;58442;52.716;23.560;2023-07-08T05:54:37;6;6;5
70520;PMS5003;58442;52.716;23.560;2023-07-08T05:56:48;6;6;5
70520;PMS5003;58442;52.716;23.560;2023-07-08T05:58:49;6;6;4
70520;PMS5003;58442;52.716;23.560;2023-07-08T06:00:54;5;4;4
70520;PMS5003;58442;52.716;23.560;2023-07-08T06:02:57;4;4;4
70520;PMS5003;58442;52.716;23.560;2023-07-08T06:05:03;5;5;5
70520;PMS5003;58442;52.716;23.560;2023-07-08T06:07:04;5;5;5
70520;PMS5003;58442;52.716;23.560;2023-07-08T06:09:06;6;6;5
70520;PMS5003;58442;52.716;23.560;2023-07-08T06:11:07;7;7;6
70520;PMS5003;58442;52.716;23.560;2023-07-08T06:13:17;6;6;5
70520;PMS5003;58442;52.716;23.560;2023-07-08T06:15:19;6;6;6
70520;PMS5003;58442;52.716;23.560;2023-07-08T06:17:20;6;6;4
70520;PMS5003;58442;52.716;23.560;2023-07-08T06:19:21;5;5;4
70520;PMS5003;58442;52.716;23.560;2023-07-08T06:21:32;6;6;5
70520;PMS5003;58442;52.716;23.560;2023-07-08T06:23:33;5;5;5
70520;PMS5003;58442;52.716;23.560;2023-07-08T06:25:35;4;4;4
70520;PMS5003;58442;52.716;23.560;2023-07-08T06:27:36;5;5;5
70520;PMS5003;58442;52.716;23.560;2023-07-08T06:29:47;4;4;4
70520;PMS5003;58442;52.716;23.560;2023-07-08T06:31:48;4;4;3
70520;PMS5003;58442;52.716;23.560;2023-07-08T06:33:50;5;5;5
70520;PMS5003;58442;52.716;23.560;2023-07-08T06:35:51;3;3;3
70520;PMS5003;58442;52.716;23.560;2023-07-08T06:38:01;6;4;3
70520;PMS5003;58442;52.716;23.560;2023-07-08T06:40:03;5;5;5
70520;PMS5003;58442;52.716;23.560;2023-07-08T06:42:05;4;4;3
70520;PMS5003;58442;52.716;23.560;2023-07-08T06:44:07;2;2;2
70520;PMS5003;58442;52.716;23.560;2023-07-08T06:46:16;4;4;4
70520;PMS5003;58442;52.716;23.560;2023-07-08T06:48:20;2;2;2
70520;PMS5003;58442;52.716;23.560;2023-07-08T06:50:22;4;4;4
70520;PMS5003;58442;52.716;23.560;2023-07-08T06:52:23;2;2;2
70520;PMS5003;58442;52.716;23.560;2023-07-08T06:54:31;4;4;3
70520;PMS5003;58442;52.716;23.560;2023-07-08T06:56:32;4;4;4
70520;PMS5003;58442;52.716;23.560;2023-07-08T06:58:33;4;4;4
70520;PMS5003;58442;52.716;23.560;2023-07-08T07:00:35;4;4;4
70520;PMS5003;58442;52.716;23.560;2023-07-08T07:02:46;2;2;2
70520;PMS5003;58442;52.716;23.560;2023-07-08T07:04:47;3;3;3
70520;PMS5003;58442;52.716;23.560;2023-07-08T07:06:48;4;4;4
70520;PMS5003;58442;52.716;23.560;2023-07-08T07:08:50;4;4;3
70520;PMS5003;58442;52.716;23.560;2023-07-08T07:11:00;3;3;2
70520;PMS5003;58442;52.716;23.560;2023-07-08T07:13:02;2;2;2
70520;PMS5003;58442;52.716;23.560;2023-07-08T07:15:03;3;3;3
70520;PMS5003;58442;52.716;23.560;2023-07-08T07:17:05;3;3;3
70520;PMS5003;58442;52.716;23.560;2023-07-08T07:20:58;3;3;3
70520;PMS5003;58442;52.716;23.560;2023-07-08T07:22:59;3;3;3
70520;PMS5003;58442;52.716;23.560;2023-07-08T07:25:01;0;0;0
70520;PMS5003;58442;52.716;23.560;2023-07-08T07:27:12;2;2;2
70520;PMS5003;58442;52.716;23.560;2023-07-08T07:29:16;4;4;4
70520;PMS5003;58442;52.716;23.560;2023-07-08T07:31:18;2;2;2
70520;PMS5003;58442;52.716;23.560;2023-07-08T07:33:19;4;4;3
70520;PMS5003;58442;52.716;23.560;2023-07-08T07:35:26;3;3;3
70520;PMS5003;58442;52.716;23.560;2023-07-08T07:37:28;3;3;3
70520;PMS5003;58442;52.716;23.560;2023-07-08T07:39:29;4;4;3
70520;PMS5003;58442;52.716;23.560;2023-07-08T07:41:30;3;3;3
70520;PMS5003;58442;52.716;23.560;2023-07-08T07:43:41;4;4;4
70520;PMS5003;58442;52.716;23.560;2023-07-08T07:45:42;4;4;4
70520;PMS5003;58442;52.716;23.560;2023-07-08T07:47:44;4;4;4
70520;PMS5003;58442;52.716;23.560;2023-07-08T07:49:45;3;3;3
70520;PMS5003;58442;52.716;23.560;2023-07-08T07:51:56;3;3;3
70520;PMS5003;58442;52.716;23.560;2023-07-08T07:53:57;3;3;3
70520;PMS5003;58442;52.716;23.560;2023-07-08T07:55:59;3;3;3
70520;PMS5003;58442;52.716;23.560;2023-07-08T07:58:02;3;3;3
70520;PMS5003;58442;52.716;23.560;2023-07-08T08:00:11;4;4;4
70520;PMS5003;58442;52.716;23.560;2023-07-08T08:02:15;3;3;3
70520;PMS5003;58442;52.716;23.560;2023-07-08T08:04:17;3;3;3
70520;PMS5003;58442;52.716;23.560;2023-07-08T08:06:18;3;3;3
70520;PMS5003;58442;52.716;23.560;2023-07-08T08:08:25;3;3;3
70520;PMS5003;58442;52.716;23.560;2023-07-08T08:10:27;2;2;2
70520;PMS5003;58442;52.716;23.560;2023-07-08T08:12:28;2;2;2
70520;PMS5003;58442;52.716;23.560;2023-07-08T08:14:30;3;3;3
70520;PMS5003;58442;52.716;23.560;2023-07-08T08:16:40;5;5;3
70520;PMS5003;58442;52.716;23.560;2023-07-08T08:18:41;3;3;2
70520;PMS5003;58442;52.716;23.560;2023-07-08T08:20:42;4;4;4
70520;PMS5003;58442;52.716;23.560;2023-07-08T08:22:43;3;3;3
70520;PMS5003;58442;52.716;23.560;2023-07-08T08:24:54;3;3;3
70520;PMS5003;58442;52.716;23.560;2023-07-08T08:26:55;2;2;2
70520;PMS5003;58442;52.716;23.560;2023-07-08T08:28:57;2;2;1
70520;PMS5003;58442;52.716;23.560;2023-07-08T08:30:58;3;3;3
70520;PMS5003;58442;52.716;23.560;2023-07-08T08:33:09;2;2;2
70520;PMS5003;58442;52.716;23.560;2023-07-08T08:35:10;3;3;3
70520;PMS5003;58442;52.716;23.560;2023-07-08T08:37:11;3;3;3
70520;PMS5003;58442;52.716;23.560;2023-07-08T08:39:13;3;3;3
70520;PMS5003;58442;52.716;23.560;2023-07-08T08:43:34;2;2;2
70520;PMS5003;58442;52.716;23.560;2023-07-08T08:45:41;5;5;4
70520;PMS5003;58442;52.716;23.560;2023-07-08T08:47:51;3;3;3
70520;PMS5003;58442;52.716;23.560;2023-07-08T08:50:01;4;4;4
70520;PMS5003;58442;52.716;23.560;2023-07-08T08:52:08;3;3;3
70520;PMS5003;58442;52.716;23.560;2023-07-08T08:54:09;3;3;3
70520;PMS5003;58442;52.716;23.560;2023-07-08T08:58:33;2;2;1
70520;PMS5003;58442;52.716;23.560;2023-07-08T09:05:08;2;2;2
70520;PMS5003;58442;52.716;23.560;2023-07-08T09:07:15;2;2;2
70520;PMS5003;58442;52.716;23.560;2023-07-08T09:09:23;3;3;3
70520;PMS5003;58442;52.716;23.560;2023-07-08T09:13:41;2;2;2
70520;PMS5003;58442;52.716;23.560;2023-07-08T09:15:45;3;3;3
70520;PMS5003;58442;52.716;23.560;2023-07-08T09:17:47;2;2;2
70520;PMS5003;58442;52.716;23.560;2023-07-08T09:22:04;4;4;4
70520;PMS5003;58442;52.716;23.560;2023-07-08T09:24:16;2;2;2
70520;PMS5003;58442;52.716;23.560;2023-07-08T09:26:25;4;4;3
70520;PMS5003;58442;52.716;23.560;2023-07-08T09:30:45;3;3;3
70520;PMS5003;58442;52.716;23.560;2023-07-08T09:32:52;5;5;4
70520;PMS5003;58442;52.716;23.560;2023-07-08T09:34:55;5;5;5
70520;PMS5003;58442;52.716;23.560;2023-07-08T09:39:29;5;5;4
70520;PMS5003;58442;52.716;23.560;2023-07-08T09:41:34;5;5;5
70520;PMS5003;58442;52.716;23.560;2023-07-08T09:43:37;3;3;3
70520;PMS5003;58442;52.716;23.560;2023-07-08T09:45:43;2;2;2
70520;PMS5003;58442;52.716;23.560;2023-07-08T09:47:47;3;3;3
70520;PMS5003;58442;52.716;23.560;2023-07-08T09:49:52;3;3;3
70520;PMS5003;58442;52.716;23.560;2023-07-08T09:51:54;12;12;12
70520;PMS5003;58442;52.716;23.560;2023-07-08T09:53:55;6;6;6
70520;PMS5003;58442;52.716;23.560;2023-07-08T09:55:59;4;4;4
70520;PMS5003;58442;52.716;23.560;2023-07-08T09:58:03;9;9;9
70520;PMS5003;58442;52.716;23.560;2023-07-08T10:00:08;3;3;3
70520;PMS5003;58442;52.716;23.560;2023-07-08T10:04:29;6;6;5
70520;PMS5003;58442;52.716;23.560;2023-07-08T10:06:34;13;13;11
70520;PMS5003;58442;52.716;23.560;2023-07-08T10:08:37;6;6;5
70520;PMS5003;58442;52.716;23.560;2023-07-08T10:10:43;5;5;4
70520;PMS5003;58442;52.716;23.560;2023-07-08T10:15:18;5;5;4
70520;PMS5003;58442;52.716;23.560;2023-07-08T10:17:16;5;5;5
70520;PMS5003;58442;52.716;23.560;2023-07-08T10:19:20;4;4;3
70520;PMS5003;58442;52.716;23.560;2023-07-08T10:21:26;3;3;3
70520;PMS5003;58442;52.716;23.560;2023-07-08T10:25:50;3;3;3
70520;PMS5003;58442;52.716;23.560;2023-07-08T10:28:03;3;3;3
70520;PMS5003;58442;52.716;23.560;2023-07-08T10:32:36;2;2;2
70520;PMS5003;58442;52.716;23.560;2023-07-08T10:51:31;4;4;3
70520;PMS5003;58442;52.716;23.560;2023-07-08T11:05:31;2;2;2
70520;PMS5003;58442;52.716;23.560;2023-07-08T11:07:54;4;4;4
70520;PMS5003;58442;52.716;23.560;2023-07-08T11:10:14;4;4;3
70520;PMS5003;58442;52.716;23.560;2023-07-08T11:15:00;5;5;5
70520;PMS5003;58442;52.716;23.560;2023-07-08T11:17:22;4;4;4
70520;PMS5003;58442;52.716;23.560;2023-07-08T11:19:37;3;3;3
70520;PMS5003;58442;52.716;23.560;2023-07-08T11:21:45;3;3;3
70520;PMS5003;58442;52.716;23.560;2023-07-08T11:23:56;2;2;2
70520;PMS5003;58442;52.716;23.560;2023-07-08T11:28:21;4;4;4
70520;PMS5003;58442;52.716;23.560;2023-07-08T11:30:25;5;5;4
70520;PMS5003;58442;52.716;23.560;2023-07-08T11:32:39;3;3;3
70520;PMS5003;58442;52.716;23.560;2023-07-08T11:34:45;5;5;5
70520;PMS5003;58442;52.716;23.560;2023-07-08T11:36:49;2;2;2
70520;PMS5003;58442;52.716;23.560;2023-07-08T11:38:53;4;4;3
70520;PMS5003;58442;52.716;23.560;2023-07-08T11:41:03;10;8;6
70520;PMS5003;58442;52.716;23.560;2023-07-08T11:43:14;11;11;6
70520;PMS5003;58442;52.716;23.560;2023-07-08T11:45:24;6;6;6
70520;PMS5003;58442;52.716;23.560;2023-07-08T11:47:33;5;5;4
70520;PMS5003;58442;52.716;23.560;2023-07-08T11:49:40;4;4;3
70520;PMS5003;58442;52.716;23.560;2023-07-08T11:51:43;4;4;3
70520;PMS5003;58442;52.716;23.560;2023-07-08T11:56:19;5;5;5
70520;PMS5003;58442;52.716;23.560;2023-07-08T11:58:23;5;5;5
70520;PMS5003;58442;52.716;23.560;2023-07-08T12:00:30;8;8;7
70520;PMS5003;58442;52.716;23.560;2023-07-08T12:02:47;5;5;5
70520;PMS5003;58442;52.716;23.560;2023-07-08T12:11:35;6;6;5
70520;PMS5003;58442;52.716;23.560;2023-07-08T12:13:36;5;5;4
70520;PMS5003;58442;52.716;23.560;2023-07-08T12:15:38;4;4;4
70520;PMS5003;58442;52.716;23.560;2023-07-08T12:17:39;4;4;3
70520;PMS5003;58442;52.716;23.560;2023-07-08T12:19:49;4;4;3
70520;PMS5003;58442;52.716;23.560;2023-07-08T12:21:51;4;4;4
70520;PMS5003;58442;52.716;23.560;2023-07-08T12:23:53;7;6;4
70520;PMS5003;58442;52.716;23.560;2023-07-08T12:25:56;7;7;5
70520;PMS5003;58442;52.716;23.560;2023-07-08T12:28:04;3;3;3
70520;PMS5003;58442;52.716;23.560;2023-07-08T12:30:05;4;4;4
70520;PMS5003;58442;52.716;23.560;2023-07-08T12:32:10;4;4;4
70520;PMS5003;58442;52.716;23.560;2023-07-08T12:34:14;4;4;4
70520;PMS5003;58442;52.716;23.560;2023-07-08T12:36:23;4;4;3
70520;PMS5003;58442;52.716;23.560;2023-07-08T12:38:29;2;2;2
70520;PMS5003;58442;52.716;23.560;2023-07-08T12:40:33;3;3;2
70520;PMS5003;58442;52.716;23.560;2023-07-08T12:42:35;4;4;4
70520;PMS5003;58442;52.716;23.560;2023-07-08T12:44:38;3;3;3
70520;PMS5003;58442;52.716;23.560;2023-07-08T12:46:44;4;4;4
70520;PMS5003;58442;52.716;23.560;2023-07-08T12:48:47;3;3;3
70520;PMS5003;58442;52.716;23.560;2023-07-08T12:50:49;4;4;3
70520;PMS5003;58442;52.716;23.560;2023-07-08T12:52:52;3;3;3
70520;PMS5003;58442;52.716;23.560;2023-07-08T12:54:53;5;5;5
70520;PMS5003;58442;52.716;23.560;2023-07-08T12:56:54;4;4;4
70520;PMS5003;58442;52.716;23.560;2023-07-08T12:58:56;5;5;5
70520;PMS5003;58442;52.716;23.560;2023-07-08T13:01:06;2;2;1
70520;PMS5003;58442;52.716;23.560;2023-07-08T13:05:22;3;3;3
70520;PMS5003;58442;52.716;23.560;2023-07-08T13:07:34;5;5;4
70520;PMS5003;58442;52.716;23.560;2023-07-08T13:09:41;4;4;3
70520;PMS5003;58442;52.716;23.560;2023-07-08T13:11:48;5;5;4
70520;PMS5003;58442;52.716;23.560;2023-07-08T13:13:50;3;3;2
70520;PMS5003;58442;52.716;23.560;2023-07-08T13:15:57;3;3;3
70520;PMS5003;58442;52.716;23.560;2023-07-08T13:17:59;5;5;4
70520;PMS5003;58442;52.716;23.560;2023-07-08T13:20:02;3;3;3
70520;PMS5003;58442;52.716;23.560;2023-07-08T13:22:04;5;5;4
70520;PMS5003;58442;52.716;23.560;2023-07-08T13:24:10;4;4;4
70520;PMS5003;58442;52.716;23.560;2023-07-08T13:26:13;4;4;4
70520;PMS5003;58442;52.716;23.560;2023-07-08T13:28:18;3;3;3
70520;PMS5003;58442;52.716;23.560;2023-07-08T13:30:23;4;4;3
70520;PMS5003;58442;52.716;23.560;2023-07-08T13:32:31;4;4;3
70520;PMS5003;58442;52.716;23.560;2023-07-08T13:34:32;5;5;4
70520;PMS5003;58442;52.716;23.560;2023-07-08T13:36:38;4;4;4
70520;PMS5003;58442;52.716;23.560;2023-07-08T13:38:41;5;5;4
70520;PMS5003;58442;52.716;23.560;2023-07-08T13:40:46;3;3;3
70520;PMS5003;58442;52.716;23.560;2023-07-08T13:42:50;6;6;5
70520;PMS5003;58442;52.716;23.560;2023-07-08T13:44:52;3;3;2
70520;PMS5003;58442;52.716;23.560;2023-07-08T13:46:56;4;4;3
70520;PMS5003;58442;52.716;23.560;2023-07-08T13:51:16;6;6;5
70520;PMS5003;58442;52.716;23.560;2023-07-08T13:53:21;9;9;8
70520;PMS5003;58442;52.716;23.560;2023-07-08T13:55:28;5;5;4
70520;PMS5003;58442;52.716;23.560;2023-07-08T13:57:36;4;4;4
70520;PMS5003;58442;52.716;23.560;2023-07-08T13:59:40;5;5;5
70520;PMS5003;58442;52.716;23.560;2023-07-08T14:01:42;6;6;5
70520;PMS5003;58442;52.716;23.560;2023-07-08T14:03:44;3;3;3
70520;PMS5003;58442;52.716;23.560;2023-07-08T14:05:46;4;4;4
70520;PMS5003;58442;52.716;23.560;2023-07-08T14:07:47;7;7;7
70520;PMS5003;58442;52.716;23.560;2023-07-08T14:09:51;5;5;5
70520;PMS5003;58442;52.716;23.560;2023-07-08T14:11:58;5;5;5
70520;PMS5003;58442;52.716;23.560;2023-07-08T14:13:59;5;5;5
70520;PMS5003;58442;52.716;23.560;2023-07-08T14:16:01;5;5;5
70520;PMS5003;58442;52.716;23.560;2023-07-08T14:18:05;6;6;5
70520;PMS5003;58442;52.716;23.560;2023-07-08T14:20:14;2;2;2
70520;PMS5003;58442;52.716;23.560;2023-07-08T14:22:24;3;3;3
70520;PMS5003;58442;52.716;23.560;2023-07-08T14:24:27;5;5;5
70520;PMS5003;58442;52.716;23.560;2023-07-08T14:26:29;3;3;3
70520;PMS5003;58442;52.716;23.560;2023-07-08T14:28:31;4;4;4
70520;PMS5003;58442;52.716;23.560;2023-07-08T14:30:33;4;4;4
70520;PMS5003;58442;52.716;23.560;2023-07-08T14:32:39;4;4;4
70520;PMS5003;58442;52.716;23.560;2023-07-08T14:34:41;5;5;5
70520;PMS5003;58442;52.716;23.560;2023-07-08T14:36:47;4;4;4
70520;PMS5003;58442;52.716;23.560;2023-07-08T14:38:49;5;5;5
70520;PMS5003;58442;52.716;23.560;2023-07-08T14:40:50;6;6;6
70520;PMS5003;58442;52.716;23.560;2023-07-08T14:42:54;6;6;5
70520;PMS5003;58442;52.716;23.560;2023-07-08T14:45:00;6;6;5
70520;PMS5003;58442;52.716;23.560;2023-07-08T14:47:02;13;13;10
70520;PMS5003;58442;52.716;23.560;2023-07-08T14:49:11;6;6;5
70520;PMS5003;58442;52.716;23.560;2023-07-08T14:51:19;23;22;17
70520;PMS5003;58442;52.716;23.560;2023-07-08T14:53:20;7;7;7
70520;PMS5003;58442;52.716;23.560;2023-07-08T14:55:22;7;7;6
70520;PMS5003;58442;52.716;23.560;2023-07-08T14:57:25;7;7;6
70520;PMS5003;58442;52.716;23.560;2023-07-08T14:59:29;6;6;6
70520;PMS5003;58442;52.716;23.560;2023-07-08T15:01:33;5;5;4
70520;PMS5003;58442;52.716;23.560;2023-07-08T15:03:34;4;4;4
70520;PMS5003;58442;52.716;23.560;2023-07-08T15:05:35;5;5;4